sensor_id;sensor_type;location;lat;lon;timestamp;P1;durP1;ratioP1;P2;durP2;ratioP2
64633;SDS011;51043;52.406;9.690;2023-08-06T00:02:27;11.43;;;8.17;;
64633;SDS011;51043;52.406;9.690;2023-08-06T00:04:55;9.03;;;7.33;;
64633;SDS011;51043;52.406;9.690;2023-08-06T00:07:26;9.83;;;7.53;;
64633;SDS011;51043;52.406;9.690;2023-08-06T00:09:54;12.30;;;7.77;;
64633;SDS011;51043;52.406;9.690;2023-08-06T00:12:26;16.17;;;9.00;;
64633;SDS011;51043;52.406;9.690;2023-08-06T00:14:54;10.27;;;8.47;;
64633;SDS011;51043;52.406;9.690;2023-08-06T00:17:25;11.63;;;10.03;;
64633;SDS011;51043;52.406;9.690;2023-08-06T00:19:54;15.37;;;10.97;;
64633;SDS011;51043;52.406;9.690;2023-08-06T00:22:22;17.00;;;12.80;;
64633;SDS011;51043;52.406;9.690;2023-08-06T00:24:50;20.83;;;13.50;;
64633;SDS011;51043;52.406;9.690;2023-08-06T00:27:19;20.20;;;14.67;;
64633;SDS011;51043;52.406;9.690;2023-08-06T00:29:48;26.53;;;15.37;;
64633;SDS011;51043;52.406;9.690;2023-08-06T00:32:17;27.73;;;15.37;;
64633;SDS011;51043;52.406;9.690;2023-08-06T00:34:45;24.47;;;14.17;;
64633;SDS011;51043;52.406;9.690;2023-08-06T00:37:13;30.37;;;14.97;;
64633;SDS011;51043;52.406;9.690;2023-08-06T00:39:41;20.80;;;11.77;;
64633;SDS011;51043;52.406;9.690;2023-08-06T00:42:10;27.63;;;12.93;;
64633;SDS011;51043;52.406;9.690;2023-08-06T00:44:38;19.43;;;12.73;;
64633;SDS011;51043;52.406;9.690;2023-08-06T00:47:08;16.37;;;10.50;;
64633;SDS011;51043;52.406;9.690;2023-08-06T00:49:37;18.20;;;10.00;;
64633;SDS011;51043;52.406;9.690;2023-08-06T00:52:06;17.23;;;10.03;;
64633;SDS011;51043;52.406;9.690;2023-08-06T00:54:36;17.90;;;9.60;;
64633;SDS011;51043;52.406;9.690;2023-08-06T00:57:04;16.47;;;9.83;;
64633;SDS011;51043;52.406;9.690;2023-08-06T00:59:34;22.63;;;10.20;;
64633;SDS011;51043;52.406;9.690;2023-08-06T01:02:03;14.07;;;9.33;;
64633;SDS011;51043;52.406;9.690;2023-08-06T01:04:33;17.40;;;10.20;;
64633;SDS011;51043;52.406;9.690;2023-08-06T01:07:03;17.97;;;9.80;;
64633;SDS011;51043;52.406;9.690;2023-08-06T01:09:42;23.93;;;10.10;;
64633;SDS011;51043;52.406;9.690;2023-08-06T01:12:18;16.87;;;9.73;;
64633;SDS011;51043;52.406;9.690;2023-08-06T01:15:07;19.33;;;9.73;;
64633;SDS011;51043;52.406;9.690;2023-08-06T01:17:40;15.50;;;9.47;;
64633;SDS011;51043;52.406;9.690;2023-08-06T01:20:10;14.10;;;9.07;;
64633;SDS011;51043;52.406;9.690;2023-08-06T01:22:39;16.83;;;9.20;;
64633;SDS011;51043;52.406;9.690;2023-08-06T01:25:08;13.77;;;9.37;;
64633;SDS011;51043;52.406;9.690;2023-08-06T01:27:38;17.80;;;10.33;;
64633;SDS011;51043;52.406;9.690;2023-08-06T01:30:13;17.73;;;9.90;;
64633;SDS011;51043;52.406;9.690;2023-08-06T01:32:46;13.80;;;9.10;;
64633;SDS011;51043;52.406;9.690;2023-08-06T01:35:17;21.97;;;10.67;;
64633;SDS011;51043;52.406;9.690;2023-08-06T01:37:48;17.70;;;9.80;;
64633;SDS011;51043;52.406;9.690;2023-08-06T01:40:17;17.87;;;10.37;;
64633;SDS011;51043;52.406;9.690;2023-08-06T01:42:45;22.57;;;10.47;;
64633;SDS011;51043;52.406;9.690;2023-08-06T01:45:14;16.50;;;10.47;;
64633;SDS011;51043;52.406;9.690;2023-08-06T01:47:42;21.03;;;10.80;;
64633;SDS011;51043;52.406;9.690;2023-08-06T01:50:10;15.63;;;10.20;;
64633;SDS011;51043;52.406;9.690;2023-08-06T01:52:38;16.47;;;10.43;;
64633;SDS011;51043;52.406;9.690;2023-08-06T01:55:08;20.80;;;9.70;;
64633;SDS011;51043;52.406;9.690;2023-08-06T01:57:36;19.07;;;10.93;;
64633;SDS011;51043;52.406;9.690;2023-08-06T02:00:05;20.23;;;10.77;;
64633;SDS011;51043;52.406;9.690;2023-08-06T02:02:40;16.10;;;10.50;;
64633;SDS011;51043;52.406;9.690;2023-08-06T02:05:09;20.53;;;11.57;;
64633;SDS011;51043;52.406;9.690;2023-08-06T02:07:38;18.83;;;11.77;;
64633;SDS011;51043;52.406;9.690;2023-08-06T02:10:11;25.00;;;12.53;;
64633;SDS011;51043;52.406;9.690;2023-08-06T02:12:39;19.37;;;11.97;;
64633;SDS011;51043;52.406;9.690;2023-08-06T02:15:08;20.50;;;12.37;;
64633;SDS011;51043;52.406;9.690;2023-08-06T02:17:37;18.97;;;12.37;;
64633;SDS011;51043;52.406;9.690;2023-08-06T02:20:06;24.53;;;12.77;;
64633;SDS011;51043;52.406;9.690;2023-08-06T02:22:34;26.90;;;12.93;;
64633;SDS011;51043;52.406;9.690;2023-08-06T02:25:03;28.73;;;13.57;;
64633;SDS011;51043;52.406;9.690;2023-08-06T02:27:33;27.00;;;13.37;;
64633;SDS011;51043;52.406;9.690;2023-08-06T02:30:01;23.63;;;13.47;;
64633;SDS011;51043;52.406;9.690;2023-08-06T02:32:31;26.30;;;14.10;;
64633;SDS011;51043;52.406;9.690;2023-08-06T02:35:02;24.23;;;14.47;;
64633;SDS011;51043;52.406;9.690;2023-08-06T02:37:32;27.93;;;14.63;;
64633;SDS011;51043;52.406;9.690;2023-08-06T02:40:01;27.17;;;15.37;;
64633;SDS011;51043;52.406;9.690;2023-08-06T02:42:29;27.87;;;15.87;;
64633;SDS011;51043;52.406;9.690;2023-08-06T02:44:59;32.33;;;16.70;;
64633;SDS011;51043;52.406;9.690;2023-08-06T02:47:28;30.13;;;17.67;;
64633;SDS011;51043;52.406;9.690;2023-08-06T02:49:56;34.40;;;18.63;;
64633;SDS011;51043;52.406;9.690;2023-08-06T02:52:25;37.10;;;18.23;;
64633;SDS011;51043;52.406;9.690;2023-08-06T02:54:56;39.73;;;18.60;;
64633;SDS011;51043;52.406;9.690;2023-08-06T02:57:28;46.17;;;20.20;;
64633;SDS011;51043;52.406;9.690;2023-08-06T02:59:57;39.83;;;20.13;;
64633;SDS011;51043;52.406;9.690;2023-08-06T03:02:30;44.13;;;19.97;;
64633;SDS011;51043;52.406;9.690;2023-08-06T03:05:16;42.93;;;21.07;;
64633;SDS011;51043;52.406;9.690;2023-08-06T03:07:46;55.60;;;21.97;;
64633;SDS011;51043;52.406;9.690;2023-08-06T03:10:20;42.53;;;20.20;;
64633;SDS011;51043;52.406;9.690;2023-08-06T03:12:50;45.43;;;21.53;;
64633;SDS011;51043;52.406;9.690;2023-08-06T03:15:21;56.27;;;22.53;;
64633;SDS011;51043;52.406;9.690;2023-08-06T03:17:50;38.90;;;20.77;;
64633;SDS011;51043;52.406;9.690;2023-08-06T03:20:20;54.07;;;22.53;;
64633;SDS011;51043;52.406;9.690;2023-08-06T03:22:49;53.30;;;23.20;;
64633;SDS011;51043;52.406;9.690;2023-08-06T03:25:17;61.63;;;23.37;;
64633;SDS011;51043;52.406;9.690;2023-08-06T03:27:48;47.97;;;23.03;;
64633;SDS011;51043;52.406;9.690;2023-08-06T03:30:17;73.90;;;24.00;;
64633;SDS011;51043;52.406;9.690;2023-08-06T03:32:48;59.30;;;22.87;;
64633;SDS011;51043;52.406;9.690;2023-08-06T03:35:19;68.10;;;25.10;;
64633;SDS011;51043;52.406;9.690;2023-08-06T03:37:48;56.23;;;22.90;;
64633;SDS011;51043;52.406;9.690;2023-08-06T03:40:16;51.03;;;22.13;;
64633;SDS011;51043;52.406;9.690;2023-08-06T03:42:45;49.77;;;23.60;;
64633;SDS011;51043;52.406;9.690;2023-08-06T03:45:13;48.93;;;22.53;;
64633;SDS011;51043;52.406;9.690;2023-08-06T03:47:42;47.87;;;22.50;;
64633;SDS011;51043;52.406;9.690;2023-08-06T03:50:13;52.03;;;24.27;;
64633;SDS011;51043;52.406;9.690;2023-08-06T03:52:41;55.63;;;24.13;;
64633;SDS011;51043;52.406;9.690;2023-08-06T03:55:10;63.00;;;24.80;;
64633;SDS011;51043;52.406;9.690;2023-08-06T03:57:38;46.70;;;22.93;;
64633;SDS011;51043;52.406;9.690;2023-08-06T04:00:07;59.13;;;23.90;;
64633;SDS011;51043;52.406;9.690;2023-08-06T04:02:45;63.63;;;23.80;;
64633;SDS011;51043;52.406;9.690;2023-08-06T04:05:15;61.13;;;23.67;;
64633;SDS011;51043;52.406;9.690;2023-08-06T04:07:44;63.43;;;24.40;;
64633;SDS011;51043;52.406;9.690;2023-08-06T04:10:13;56.30;;;23.80;;
64633;SDS011;51043;52.406;9.690;2023-08-06T04:12:40;66.30;;;24.77;;
64633;SDS011;51043;52.406;9.690;2023-08-06T04:15:09;57.93;;;24.10;;
64633;SDS011;51043;52.406;9.690;2023-08-06T04:17:37;54.37;;;23.10;;
64633;SDS011;51043;52.406;9.690;2023-08-06T04:20:06;86.00;;;26.67;;
64633;SDS011;51043;52.406;9.690;2023-08-06T04:22:36;62.90;;;25.43;;
64633;SDS011;51043;52.406;9.690;2023-08-06T04:25:04;60.67;;;24.43;;
64633;SDS011;51043;52.406;9.690;2023-08-06T04:27:33;58.87;;;24.17;;
64633;SDS011;51043;52.406;9.690;2023-08-06T04:30:04;64.50;;;25.13;;
64633;SDS011;51043;52.406;9.690;2023-08-06T04:32:35;72.37;;;27.00;;
64633;SDS011;51043;52.406;9.690;2023-08-06T04:35:04;66.37;;;26.60;;
64633;SDS011;51043;52.406;9.690;2023-08-06T04:37:33;73.37;;;28.00;;
64633;SDS011;51043;52.406;9.690;2023-08-06T04:40:03;83.47;;;29.13;;
64633;SDS011;51043;52.406;9.690;2023-08-06T04:42:32;80.33;;;29.53;;
64633;SDS011;51043;52.406;9.690;2023-08-06T04:45:00;87.00;;;30.47;;
64633;SDS011;51043;52.406;9.690;2023-08-06T04:47:29;70.63;;;26.83;;
64633;SDS011;51043;52.406;9.690;2023-08-06T04:49:57;69.47;;;27.13;;
64633;SDS011;51043;52.406;9.690;2023-08-06T04:52:26;65.63;;;26.70;;
64633;SDS011;51043;52.406;9.690;2023-08-06T04:54:56;62.07;;;25.93;;
64633;SDS011;51043;52.406;9.690;2023-08-06T04:57:25;72.40;;;26.60;;
64633;SDS011;51043;52.406;9.690;2023-08-06T04:59:56;58.77;;;23.83;;
64633;SDS011;51043;52.406;9.690;2023-08-06T05:02:24;60.40;;;24.73;;
64633;SDS011;51043;52.406;9.690;2023-08-06T05:04:55;65.33;;;25.00;;
64633;SDS011;51043;52.406;9.690;2023-08-06T05:07:23;55.83;;;24.80;;
64633;SDS011;51043;52.406;9.690;2023-08-06T05:09:52;52.80;;;24.13;;
64633;SDS011;51043;52.406;9.690;2023-08-06T05:12:21;58.30;;;24.23;;
64633;SDS011;51043;52.406;9.690;2023-08-06T05:14:49;58.67;;;24.70;;
64633;SDS011;51043;52.406;9.690;2023-08-06T05:17:18;42.80;;;22.20;;
64633;SDS011;51043;52.406;9.690;2023-08-06T05:19:49;47.23;;;21.83;;
64633;SDS011;51043;52.406;9.690;2023-08-06T05:22:17;46.50;;;22.63;;
64633;SDS011;51043;52.406;9.690;2023-08-06T05:24:45;47.17;;;23.43;;
64633;SDS011;51043;52.406;9.690;2023-08-06T05:27:14;46.53;;;22.93;;
64633;SDS011;51043;52.406;9.690;2023-08-06T05:29:43;36.47;;;21.77;;
64633;SDS011;51043;52.406;9.690;2023-08-06T05:32:11;34.90;;;21.07;;
64633;SDS011;51043;52.406;9.690;2023-08-06T05:34:39;50.77;;;22.30;;
64633;SDS011;51043;52.406;9.690;2023-08-06T05:37:07;47.17;;;21.70;;
64633;SDS011;51043;52.406;9.690;2023-08-06T05:39:36;34.20;;;19.20;;
64633;SDS011;51043;52.406;9.690;2023-08-06T05:42:04;40.70;;;19.13;;
64633;SDS011;51043;52.406;9.690;2023-08-06T05:44:33;40.83;;;20.73;;
64633;SDS011;51043;52.406;9.690;2023-08-06T05:47:06;28.53;;;17.70;;
64633;SDS011;51043;52.406;9.690;2023-08-06T05:49:34;28.70;;;17.13;;
64633;SDS011;51043;52.406;9.690;2023-08-06T05:52:03;25.03;;;16.03;;
64633;SDS011;51043;52.406;9.690;2023-08-06T05:54:34;29.30;;;15.17;;
64633;SDS011;51043;52.406;9.690;2023-08-06T05:57:03;23.03;;;14.43;;
64633;SDS011;51043;52.406;9.690;2023-08-06T05:59:32;17.93;;;12.63;;
64633;SDS011;51043;52.406;9.690;2023-08-06T06:02:00;19.97;;;11.47;;
64633;SDS011;51043;52.406;9.690;2023-08-06T06:04:29;11.55;;;9.35;;
64633;SDS011;51043;52.406;9.690;2023-08-06T06:06:57;11.95;;;7.82;;
64633;SDS011;51043;52.406;9.690;2023-08-06T06:09:26;13.73;;;6.90;;
64633;SDS011;51043;52.406;9.690;2023-08-06T06:11:55;9.73;;;7.03;;
64633;SDS011;51043;52.406;9.690;2023-08-06T06:14:23;10.15;;;6.70;;
64633;SDS011;51043;52.406;9.690;2023-08-06T06:16:52;10.48;;;6.85;;
64633;SDS011;51043;52.406;9.690;2023-08-06T06:19:20;9.70;;;6.45;;
64633;SDS011;51043;52.406;9.690;2023-08-06T06:21:49;8.77;;;5.47;;
64633;SDS011;51043;52.406;9.690;2023-08-06T06:24:18;8.20;;;5.43;;
64633;SDS011;51043;52.406;9.690;2023-08-06T06:26:46;7.82;;;5.50;;
64633;SDS011;51043;52.406;9.690;2023-08-06T06:29:14;10.25;;;5.50;;
64633;SDS011;51043;52.406;9.690;2023-08-06T06:31:42;9.15;;;5.43;;
64633;SDS011;51043;52.406;9.690;2023-08-06T06:34:11;9.05;;;5.30;;
64633;SDS011;51043;52.406;9.690;2023-08-06T06:36:39;8.32;;;5.05;;
64633;SDS011;51043;52.406;9.690;2023-08-06T06:39:09;9.77;;;4.93;;
64633;SDS011;51043;52.406;9.690;2023-08-06T06:41:37;9.52;;;4.72;;
64633;SDS011;51043;52.406;9.690;2023-08-06T06:44:16;6.93;;;3.85;;
64633;SDS011;51043;52.406;9.690;2023-08-06T06:46:46;9.88;;;4.28;;
64633;SDS011;51043;52.406;9.690;2023-08-06T06:49:14;4.30;;;3.90;;
64633;SDS011;51043;52.406;9.690;2023-08-06T06:51:42;6.50;;;4.10;;
64633;SDS011;51043;52.406;9.690;2023-08-06T06:54:12;5.20;;;3.75;;
64633;SDS011;51043;52.406;9.690;2023-08-06T06:56:42;4.50;;;3.53;;
64633;SDS011;51043;52.406;9.690;2023-08-06T06:59:10;3.80;;;2.97;;
64633;SDS011;51043;52.406;9.690;2023-08-06T07:01:38;5.35;;;3.05;;
64633;SDS011;51043;52.406;9.690;2023-08-06T07:04:07;6.80;;;3.00;;
64633;SDS011;51043;52.406;9.690;2023-08-06T07:06:35;4.10;;;3.13;;
64633;SDS011;51043;52.406;9.690;2023-08-06T07:09:03;6.15;;;3.40;;
64633;SDS011;51043;52.406;9.690;2023-08-06T07:11:33;4.32;;;3.40;;
64633;SDS011;51043;52.406;9.690;2023-08-06T07:14:01;8.93;;;4.35;;
64633;SDS011;51043;52.406;9.690;2023-08-06T07:16:29;3.50;;;3.15;;
64633;SDS011;51043;52.406;9.690;2023-08-06T07:18:57;6.53;;;3.70;;
64633;SDS011;51043;52.406;9.690;2023-08-06T07:21:26;5.38;;;3.65;;
64633;SDS011;51043;52.406;9.690;2023-08-06T07:23:54;7.55;;;3.22;;
64633;SDS011;51043;52.406;9.690;2023-08-06T07:26:22;7.45;;;3.53;;
64633;SDS011;51043;52.406;9.690;2023-08-06T07:28:53;4.28;;;3.17;;
64633;SDS011;51043;52.406;9.690;2023-08-06T07:31:22;5.07;;;3.05;;
64633;SDS011;51043;52.406;9.690;2023-08-06T07:33:50;7.70;;;2.80;;
64633;SDS011;51043;52.406;9.690;2023-08-06T07:36:18;4.72;;;2.63;;
64633;SDS011;51043;52.406;9.690;2023-08-06T07:38:47;2.40;;;2.20;;
64633;SDS011;51043;52.406;9.690;2023-08-06T07:41:22;3.08;;;2.35;;
64633;SDS011;51043;52.406;9.690;2023-08-06T07:43:50;4.80;;;2.05;;
64633;SDS011;51043;52.406;9.690;2023-08-06T07:46:19;1.90;;;1.70;;
64633;SDS011;51043;52.406;9.690;2023-08-06T07:48:48;3.35;;;1.73;;
64633;SDS011;51043;52.406;9.690;2023-08-06T07:51:16;1.70;;;1.60;;
64633;SDS011;51043;52.406;9.690;2023-08-06T07:53:44;3.30;;;1.80;;
64633;SDS011;51043;52.406;9.690;2023-08-06T07:56:13;3.10;;;1.70;;
64633;SDS011;51043;52.406;9.690;2023-08-06T07:58:41;2.85;;;1.60;;
64633;SDS011;51043;52.406;9.690;2023-08-06T08:01:09;3.50;;;1.60;;
64633;SDS011;51043;52.406;9.690;2023-08-06T08:03:39;2.67;;;1.52;;
64633;SDS011;51043;52.406;9.690;2023-08-06T08:06:07;1.85;;;1.60;;
64633;SDS011;51043;52.406;9.690;2023-08-06T08:08:38;3.03;;;1.67;;
64633;SDS011;51043;52.406;9.690;2023-08-06T08:11:07;2.35;;;1.60;;
64633;SDS011;51043;52.406;9.690;2023-08-06T08:13:38;2.20;;;1.90;;
64633;SDS011;51043;52.406;9.690;2023-08-06T08:16:06;2.88;;;1.80;;
64633;SDS011;51043;52.406;9.690;2023-08-06T08:18:40;4.30;;;1.85;;
64633;SDS011;51043;52.406;9.690;2023-08-06T08:21:08;4.55;;;1.83;;
64633;SDS011;51043;52.406;9.690;2023-08-06T08:23:36;5.35;;;1.90;;
64633;SDS011;51043;52.406;9.690;2023-08-06T08:26:05;3.08;;;1.88;;
64633;SDS011;51043;52.406;9.690;2023-08-06T08:28:33;2.70;;;1.80;;
64633;SDS011;51043;52.406;9.690;2023-08-06T08:31:01;3.05;;;1.55;;
64633;SDS011;51043;52.406;9.690;2023-08-06T08:33:30;5.00;;;1.70;;
64633;SDS011;51043;52.406;9.690;2023-08-06T08:35:59;4.90;;;1.80;;
64633;SDS011;51043;52.406;9.690;2023-08-06T08:38:31;3.55;;;1.63;;
64633;SDS011;51043;52.406;9.690;2023-08-06T08:40:59;5.05;;;1.75;;
64633;SDS011;51043;52.406;9.690;2023-08-06T08:43:30;2.75;;;1.67;;
64633;SDS011;51043;52.406;9.690;2023-08-06T08:45:59;2.35;;;1.80;;
64633;SDS011;51043;52.406;9.690;2023-08-06T08:48:36;2.35;;;1.90;;
64633;SDS011;51043;52.406;9.690;2023-08-06T08:51:06;1.65;;;1.40;;
64633;SDS011;51043;52.406;9.690;2023-08-06T08:53:35;3.92;;;1.70;;
64633;SDS011;51043;52.406;9.690;2023-08-06T08:56:05;2.60;;;1.80;;
64633;SDS011;51043;52.406;9.690;2023-08-06T08:58:34;4.25;;;1.70;;
64633;SDS011;51043;52.406;9.690;2023-08-06T09:01:02;3.58;;;1.85;;
64633;SDS011;51043;52.406;9.690;2023-08-06T09:03:31;3.53;;;1.60;;
64633;SDS011;51043;52.406;9.690;2023-08-06T09:06:00;2.65;;;1.60;;
64633;SDS011;51043;52.406;9.690;2023-08-06T09:08:33;2.15;;;1.50;;
64633;SDS011;51043;52.406;9.690;2023-08-06T09:11:04;1.98;;;1.60;;
64633;SDS011;51043;52.406;9.690;2023-08-06T09:13:37;2.83;;;1.40;;
64633;SDS011;51043;52.406;9.690;2023-08-06T09:16:06;2.38;;;1.50;;
64633;SDS011;51043;52.406;9.690;2023-08-06T09:18:34;3.30;;;1.80;;
64633;SDS011;51043;52.406;9.690;2023-08-06T09:21:06;2.25;;;1.45;;
64633;SDS011;51043;52.406;9.690;2023-08-06T09:23:43;1.50;;;1.35;;
64633;SDS011;51043;52.406;9.690;2023-08-06T09:26:12;3.85;;;1.70;;
64633;SDS011;51043;52.406;9.690;2023-08-06T09:28:43;5.10;;;1.80;;
64633;SDS011;51043;52.406;9.690;2023-08-06T09:31:11;4.32;;;1.70;;
64633;SDS011;51043;52.406;9.690;2023-08-06T09:33:39;3.35;;;1.75;;
64633;SDS011;51043;52.406;9.690;2023-08-06T09:36:08;2.20;;;1.85;;
64633;SDS011;51043;52.406;9.690;2023-08-06T09:38:37;3.17;;;1.77;;
64633;SDS011;51043;52.406;9.690;2023-08-06T09:41:08;2.45;;;1.67;;
64633;SDS011;51043;52.406;9.690;2023-08-06T09:43:40;2.35;;;1.67;;
64633;SDS011;51043;52.406;9.690;2023-08-06T09:46:12;2.08;;;1.60;;
64633;SDS011;51043;52.406;9.690;2023-08-06T09:48:44;3.78;;;1.90;;
64633;SDS011;51043;52.406;9.690;2023-08-06T09:51:13;2.25;;;1.65;;
64633;SDS011;51043;52.406;9.690;2023-08-06T09:53:42;2.42;;;1.60;;
64633;SDS011;51043;52.406;9.690;2023-08-06T09:56:15;3.03;;;1.40;;
64633;SDS011;51043;52.406;9.690;2023-08-06T09:58:44;4.30;;;1.70;;
64633;SDS011;51043;52.406;9.690;2023-08-06T10:01:16;2.67;;;1.38;;
64633;SDS011;51043;52.406;9.690;2023-08-06T10:03:46;2.75;;;1.50;;
64633;SDS011;51043;52.406;9.690;2023-08-06T10:06:15;3.35;;;1.73;;
64633;SDS011;51043;52.406;9.690;2023-08-06T10:08:44;4.65;;;1.80;;
64633;SDS011;51043;52.406;9.690;2023-08-06T10:11:12;2.67;;;1.85;;
64633;SDS011;51043;52.406;9.690;2023-08-06T10:13:44;1.80;;;1.70;;
64633;SDS011;51043;52.406;9.690;2023-08-06T10:16:13;2.38;;;1.80;;
64633;SDS011;51043;52.406;9.690;2023-08-06T10:18:41;3.55;;;1.50;;
64633;SDS011;51043;52.406;9.690;2023-08-06T10:21:10;5.65;;;1.73;;
64633;SDS011;51043;52.406;9.690;2023-08-06T10:23:40;6.45;;;1.73;;
64633;SDS011;51043;52.406;9.690;2023-08-06T10:26:08;3.88;;;1.80;;
64633;SDS011;51043;52.406;9.690;2023-08-06T10:28:38;3.28;;;1.80;;
64633;SDS011;51043;52.406;9.690;2023-08-06T10:31:09;2.55;;;1.58;;
64633;SDS011;51043;52.406;9.690;2023-08-06T10:33:40;1.83;;;1.58;;
64633;SDS011;51043;52.406;9.690;2023-08-06T10:36:10;2.10;;;1.90;;
64633;SDS011;51043;52.406;9.690;2023-08-06T10:38:45;2.97;;;2.15;;
64633;SDS011;51043;52.406;9.690;2023-08-06T10:41:15;2.67;;;2.13;;
64633;SDS011;51043;52.406;9.690;2023-08-06T10:43:47;3.20;;;2.17;;
64633;SDS011;51043;52.406;9.690;2023-08-06T10:46:22;3.22;;;2.20;;
64633;SDS011;51043;52.406;9.690;2023-08-06T10:48:51;3.28;;;1.90;;
64633;SDS011;51043;52.406;9.690;2023-08-06T10:51:19;1.88;;;1.60;;
64633;SDS011;51043;52.406;9.690;2023-08-06T10:53:48;1.50;;;1.40;;
64633;SDS011;51043;52.406;9.690;2023-08-06T10:56:17;3.35;;;1.80;;
64633;SDS011;51043;52.406;9.690;2023-08-06T10:58:51;1.70;;;1.55;;
64633;SDS011;51043;52.406;9.690;2023-08-06T11:01:22;3.90;;;2.05;;
64633;SDS011;51043;52.406;9.690;2023-08-06T11:03:51;2.55;;;1.70;;
64633;SDS011;51043;52.406;9.690;2023-08-06T11:06:20;2.28;;;1.55;;
64633;SDS011;51043;52.406;9.690;2023-08-06T11:08:50;2.13;;;1.75;;
64633;SDS011;51043;52.406;9.690;2023-08-06T11:11:19;2.40;;;1.50;;
64633;SDS011;51043;52.406;9.690;2023-08-06T11:13:52;4.05;;;1.60;;
64633;SDS011;51043;52.406;9.690;2023-08-06T11:16:21;2.17;;;1.60;;
64633;SDS011;51043;52.406;9.690;2023-08-06T11:18:51;7.15;;;1.67;;
64633;SDS011;51043;52.406;9.690;2023-08-06T11:21:21;4.95;;;1.60;;
64633;SDS011;51043;52.406;9.690;2023-08-06T11:23:51;1.83;;;1.50;;
64633;SDS011;51043;52.406;9.690;2023-08-06T11:26:19;1.50;;;1.40;;
64633;SDS011;51043;52.406;9.690;2023-08-06T11:28:49;2.75;;;1.63;;
64633;SDS011;51043;52.406;9.690;2023-08-06T11:31:19;3.15;;;1.48;;
64633;SDS011;51043;52.406;9.690;2023-08-06T11:33:49;2.50;;;1.73;;
64633;SDS011;51043;52.406;9.690;2023-08-06T11:36:28;4.72;;;1.45;;
64633;SDS011;51043;52.406;9.690;2023-08-06T11:38:58;3.55;;;1.65;;
64633;SDS011;51043;52.406;9.690;2023-08-06T11:41:27;3.60;;;1.58;;
64633;SDS011;51043;52.406;9.690;2023-08-06T11:43:58;3.10;;;1.40;;
64633;SDS011;51043;52.406;9.690;2023-08-06T11:46:26;1.60;;;1.25;;
64633;SDS011;51043;52.406;9.690;2023-08-06T11:48:56;2.13;;;1.52;;
64633;SDS011;51043;52.406;9.690;2023-08-06T11:51:25;1.50;;;1.40;;
64633;SDS011;51043;52.406;9.690;2023-08-06T11:53:55;2.97;;;1.63;;
64633;SDS011;51043;52.406;9.690;2023-08-06T11:56:23;2.88;;;1.70;;
64633;SDS011;51043;52.406;9.690;2023-08-06T11:58:54;1.42;;;1.33;;
64633;SDS011;51043;52.406;9.690;2023-08-06T12:01:25;3.30;;;1.80;;
64633;SDS011;51043;52.406;9.690;2023-08-06T12:03:58;2.40;;;1.67;;
64633;SDS011;51043;52.406;9.690;2023-08-06T12:06:27;4.45;;;1.70;;
64633;SDS011;51043;52.406;9.690;2023-08-06T12:08:55;2.17;;;1.50;;
64633;SDS011;51043;52.406;9.690;2023-08-06T12:11:23;6.45;;;1.77;;
64633;SDS011;51043;52.406;9.690;2023-08-06T12:13:51;2.83;;;1.52;;
64633;SDS011;51043;52.406;9.690;2023-08-06T12:16:20;2.10;;;1.35;;
64633;SDS011;51043;52.406;9.690;2023-08-06T12:18:51;3.92;;;1.73;;
64633;SDS011;51043;52.406;9.690;2023-08-06T12:21:22;1.80;;;1.50;;
64633;SDS011;51043;52.406;9.690;2023-08-06T12:23:50;1.67;;;1.30;;
64633;SDS011;51043;52.406;9.690;2023-08-06T12:26:18;2.42;;;1.83;;
64633;SDS011;51043;52.406;9.690;2023-08-06T12:28:49;2.38;;;1.60;;
64633;SDS011;51043;52.406;9.690;2023-08-06T12:31:25;2.13;;;1.73;;
64633;SDS011;51043;52.406;9.690;2023-08-06T12:33:55;1.83;;;1.60;;
64633;SDS011;51043;52.406;9.690;2023-08-06T12:36:27;2.40;;;1.50;;
64633;SDS011;51043;52.406;9.690;2023-08-06T12:38:55;2.58;;;1.40;;
64633;SDS011;51043;52.406;9.690;2023-08-06T12:41:27;2.20;;;1.48;;
64633;SDS011;51043;52.406;9.690;2023-08-06T12:43:55;3.35;;;1.80;;
64633;SDS011;51043;52.406;9.690;2023-08-06T12:46:26;1.70;;;1.60;;
64633;SDS011;51043;52.406;9.690;2023-08-06T12:49:00;2.22;;;1.55;;
64633;SDS011;51043;52.406;9.690;2023-08-06T12:51:28;2.55;;;1.45;;
64633;SDS011;51043;52.406;9.690;2023-08-06T12:53:57;5.00;;;1.90;;
64633;SDS011;51043;52.406;9.690;2023-08-06T12:56:25;2.90;;;1.60;;
64633;SDS011;51043;52.406;9.690;2023-08-06T12:58:53;3.50;;;2.08;;
64633;SDS011;51043;52.406;9.690;2023-08-06T13:01:22;3.72;;;1.80;;
64633;SDS011;51043;52.406;9.690;2023-08-06T13:03:50;4.28;;;1.83;;
64633;SDS011;51043;52.406;9.690;2023-08-06T13:06:23;4.78;;;1.98;;
64633;SDS011;51043;52.406;9.690;2023-08-06T13:08:51;2.60;;;2.00;;
64633;SDS011;51043;52.406;9.690;2023-08-06T13:11:20;3.28;;;1.80;;
64633;SDS011;51043;52.406;9.690;2023-08-06T13:13:48;2.13;;;1.92;;
64633;SDS011;51043;52.406;9.690;2023-08-06T13:16:16;1.60;;;1.50;;
64633;SDS011;51043;52.406;9.690;2023-08-06T13:18:44;5.05;;;1.90;;
64633;SDS011;51043;52.406;9.690;2023-08-06T13:21:12;1.95;;;1.60;;
64633;SDS011;51043;52.406;9.690;2023-08-06T13:23:42;2.97;;;1.98;;
64633;SDS011;51043;52.406;9.690;2023-08-06T13:26:10;3.05;;;1.88;;
64633;SDS011;51043;52.406;9.690;2023-08-06T13:28:41;2.50;;;1.77;;
64633;SDS011;51043;52.406;9.690;2023-08-06T13:31:10;2.42;;;1.52;;
64633;SDS011;51043;52.406;9.690;2023-08-06T13:33:39;3.83;;;1.70;;
64633;SDS011;51043;52.406;9.690;2023-08-06T13:36:07;3.63;;;1.90;;
64633;SDS011;51043;52.406;9.690;2023-08-06T13:38:35;2.05;;;1.63;;
64633;SDS011;51043;52.406;9.690;2023-08-06T13:41:05;2.97;;;1.92;;
64633;SDS011;51043;52.406;9.690;2023-08-06T13:43:34;2.83;;;1.80;;
64633;SDS011;51043;52.406;9.690;2023-08-06T13:46:03;4.53;;;1.73;;
64633;SDS011;51043;52.406;9.690;2023-08-06T13:48:32;2.78;;;2.30;;
64633;SDS011;51043;52.406;9.690;2023-08-06T13:51:01;3.45;;;1.98;;
64633;SDS011;51043;52.406;9.690;2023-08-06T13:53:29;3.47;;;1.40;;
64633;SDS011;51043;52.406;9.690;2023-08-06T13:55:58;3.03;;;1.88;;
64633;SDS011;51043;52.406;9.690;2023-08-06T13:58:28;1.67;;;1.52;;
64633;SDS011;51043;52.406;9.690;2023-08-06T14:00:56;1.83;;;1.67;;
64633;SDS011;51043;52.406;9.690;2023-08-06T14:03:25;1.80;;;1.50;;
64633;SDS011;51043;52.406;9.690;2023-08-06T14:05:55;1.92;;;1.50;;
64633;SDS011;51043;52.406;9.690;2023-08-06T14:08:24;4.15;;;1.90;;
64633;SDS011;51043;52.406;9.690;2023-08-06T14:10:52;7.07;;;2.00;;
64633;SDS011;51043;52.406;9.690;2023-08-06T14:13:23;3.17;;;1.80;;
64633;SDS011;51043;52.406;9.690;2023-08-06T14:15:55;2.95;;;2.10;;
64633;SDS011;51043;52.406;9.690;2023-08-06T14:18:23;5.65;;;1.95;;
64633;SDS011;51043;52.406;9.690;2023-08-06T14:20:54;2.00;;;1.90;;
64633;SDS011;51043;52.406;9.690;2023-08-06T14:23:22;3.33;;;1.80;;
64633;SDS011;51043;52.406;9.690;2023-08-06T14:25:51;3.28;;;2.05;;
64633;SDS011;51043;52.406;9.690;2023-08-06T14:28:22;1.92;;;1.73;;
64633;SDS011;51043;52.406;9.690;2023-08-06T14:30:50;6.13;;;2.00;;
64633;SDS011;51043;52.406;9.690;2023-08-06T14:33:25;2.80;;;1.95;;
64633;SDS011;51043;52.406;9.690;2023-08-06T14:35:53;3.10;;;1.70;;
64633;SDS011;51043;52.406;9.690;2023-08-06T14:38:21;2.92;;;1.98;;
64633;SDS011;51043;52.406;9.690;2023-08-06T14:40:49;3.22;;;1.75;;
64633;SDS011;51043;52.406;9.690;2023-08-06T14:43:18;3.60;;;2.30;;
64633;SDS011;51043;52.406;9.690;2023-08-06T14:45:46;3.70;;;2.03;;
64633;SDS011;51043;52.406;9.690;2023-08-06T14:48:16;4.10;;;2.33;;
64633;SDS011;51043;52.406;9.690;2023-08-06T14:50:44;4.78;;;2.63;;
64633;SDS011;51043;52.406;9.690;2023-08-06T14:53:19;11.15;;;2.63;;